createdAt,value
2022-09-21T00:00:52.198Z,102474.00
2022-09-21T00:03:20.514Z,102477.69
2022-09-21T00:05:48.332Z,102475.25
2022-09-21T00:08:16.214Z,102477.06
2022-09-21T00:10:44.090Z,102474.28
2022-09-21T00:13:13.515Z,102477.91
2022-09-21T00:15:41.983Z,102484.50
2022-09-21T00:18:13.752Z,102483.56
2022-09-21T00:20:43.556Z,102478.28
2022-09-21T00:23:11.660Z,102475.53
2022-09-21T00:25:39.736Z,102480.88
2022-09-21T00:28:07.607Z,102481.00
2022-09-21T00:30:35.713Z,102490.81
2022-09-21T00:33:03.905Z,102491.81
2022-09-21T00:35:33.585Z,102486.41
2022-09-21T00:38:02.568Z,102498.19
2022-09-21T00:40:31.725Z,102492.00
2022-09-21T00:43:13.744Z,102487.50
2022-09-21T00:45:42.423Z,102487.53
2022-09-21T00:48:11.024Z,102482.16
2022-09-21T00:50:45.641Z,102481.47
2022-09-21T00:53:13.763Z,102479.69
2022-09-21T00:55:45.048Z,102488.63
2022-09-21T00:58:18.149Z,102485.22
2022-09-21T01:00:46.264Z,102491.38
2022-09-21T01:03:14.700Z,102487.69
2022-09-21T01:05:43.948Z,102497.69
2022-09-21T01:08:15.280Z,102495.22
2022-09-21T01:10:55.860Z,102490.00
2022-09-21T01:13:35.385Z,102498.09
2022-09-21T01:16:11.436Z,102502.66
2022-09-21T01:18:47.667Z,102496.38
2022-09-21T01:21:25.202Z,102507.16
2022-09-21T01:24:37.599Z,102508.06
2022-09-21T01:27:39.158Z,102503.75
2022-09-21T01:30:12.530Z,102501.16
2022-09-21T01:32:45.477Z,102508.97
2022-09-21T01:35:18.676Z,102502.81
2022-09-21T01:37:51.429Z,102503.69
2022-09-21T01:40:23.679Z,102512.84
2022-09-21T01:42:54.198Z,102507.44
2022-09-21T01:45:30.842Z,102509.28
2022-09-21T01:48:01.154Z,102505.69
2022-09-21T01:50:34.083Z,102510.03
2022-09-21T01:53:06.601Z,102509.22
2022-09-21T01:55:41.223Z,102503.88
2022-09-21T01:58:17.582Z,102508.34
2022-09-21T02:00:50.136Z,102507.44
2022-09-21T02:03:24.695Z,102508.59
2022-09-21T02:05:53.206Z,102506.69
2022-09-21T02:08:21.382Z,102504.81
2022-09-21T02:10:51.926Z,102510.19
2022-09-21T02:13:23.471Z,102503.38
2022-09-21T02:16:04.725Z,102507.00
2022-09-21T02:18:44.290Z,102505.13
2022-09-21T02:21:24.238Z,102505.94
2022-09-21T02:24:02.245Z,102510.44
2022-09-21T02:26:37.065Z,102508.09
2022-09-21T02:29:18.051Z,102513.44
2022-09-21T02:31:53.648Z,102509.94
2022-09-21T02:34:26.415Z,102510.78
2022-09-21T02:36:59.365Z,102513.69
2022-09-21T02:39:34.478Z,102515.34
2022-09-21T02:42:08.893Z,102511.00
2022-09-21T02:44:41.908Z,102519.97
2022-09-21T02:47:17.858Z,102520.84
2022-09-21T02:49:51.517Z,102523.53
2022-09-21T02:52:21.486Z,102524.53
2022-09-21T02:54:53.222Z,102521.94
2022-09-21T02:57:24.487Z,102524.69
2022-09-21T02:59:53.467Z,102524.69
2022-09-21T03:02:22.657Z,102523.78
2022-09-21T03:04:50.631Z,102528.41
2022-09-21T03:07:18.775Z,102533.63
2022-09-21T03:09:46.603Z,102525.56
2022-09-21T03:12:14.589Z,102533.00
2022-09-21T03:14:43.072Z,102524.22
2022-09-21T03:17:11.045Z,102533.16
2022-09-21T03:19:40.697Z,102539.41
2022-09-21T03:22:08.624Z,102537.66
2022-09-21T03:24:48.199Z,102538.44
2022-09-21T03:27:17.764Z,102542.94
2022-09-21T03:29:45.993Z,102539.41
2022-09-21T03:32:14.435Z,102531.41
2022-09-21T03:34:43.894Z,102538.56
2022-09-21T03:37:12.148Z,102533.25
2022-09-21T03:39:42.832Z,102529.81
2022-09-21T03:42:12.040Z,102539.63
2022-09-21T03:44:41.336Z,102539.63
2022-09-21T03:47:09.358Z,102540.41
2022-09-21T03:49:38.591Z,102542.28
2022-09-21T03:52:07.994Z,102546.69
2022-09-21T03:54:36.166Z,102545.03
2022-09-21T03:57:04.304Z,102538.78
2022-09-21T03:59:32.228Z,102547.69
2022-09-21T04:02:00.200Z,102549.75
2022-09-21T04:04:28.677Z,102544.41
2022-09-21T04:06:56.767Z,102547.88
2022-09-21T04:09:26.335Z,102554.28
2022-09-21T04:11:54.675Z,102552.66
2022-09-21T04:14:23.646Z,102554.25
2022-09-21T04:16:52.131Z,102546.94
2022-09-21T04:19:21.608Z,102545.09
2022-09-21T04:21:51.334Z,102549.53
2022-09-21T04:24:19.834Z,102547.81
2022-09-21T04:26:49.596Z,102536.97
2022-09-21T04:29:17.999Z,102545.03
2022-09-21T04:31:45.947Z,102543.25
2022-09-21T04:34:15.019Z,102548.53
2022-09-21T04:36:43.659Z,102549.53
2022-09-21T04:39:11.698Z,102548.69
2022-09-21T04:41:39.718Z,102541.75
2022-09-21T04:44:09.197Z,102539.22
2022-09-21T04:46:37.174Z,102545.50
2022-09-21T04:49:05.251Z,102542.13
2022-09-21T04:51:33.168Z,102554.44
2022-09-21T04:54:01.335Z,102547.75
2022-09-21T04:56:29.346Z,102550.28
2022-09-21T04:58:57.458Z,102557.41
2022-09-21T05:01:26.838Z,102556.69
2022-09-21T05:03:55.336Z,102552.34
2022-09-21T05:06:23.352Z,102562.97
2022-09-21T05:09:09.244Z,102562.06
2022-09-21T05:11:37.151Z,102563.91
2022-09-21T05:14:05.104Z,102572.78
2022-09-21T05:16:34.732Z,102572.72
2022-09-21T05:19:03.505Z,102570.19
2022-09-21T05:21:32.285Z,102574.50
2022-09-21T05:24:00.270Z,102582.50
2022-09-21T05:26:28.303Z,102580.97
2022-09-21T05:28:56.782Z,102577.56
2022-09-21T05:31:40.148Z,102584.56
2022-09-21T05:34:22.318Z,102588.06
2022-09-21T05:36:58.080Z,102578.34
2022-09-21T05:39:26.778Z,102581.72
2022-09-21T05:41:55.368Z,102577.19
2022-09-21T05:44:23.855Z,102578.13
2022-09-21T05:47:00.105Z,102587.00
2022-09-21T05:49:41.761Z,102578.91
2022-09-21T05:52:18.398Z,102585.84
2022-09-21T05:54:57.283Z,102583.03
2022-09-21T05:57:39.912Z,102582.28
2022-09-21T06:00:16.075Z,102583.94
2022-09-21T06:03:16.862Z,102588.16
2022-09-21T06:05:46.227Z,102582.75
2022-09-21T06:08:14.265Z,102588.88
2022-09-21T06:10:42.351Z,102584.25
2022-09-21T06:13:10.405Z,102584.94
2022-09-21T06:15:38.590Z,102584.78
2022-09-21T06:18:08.439Z,102589.09
2022-09-21T06:20:36.981Z,102588.91
2022-09-21T06:23:06.199Z,102593.19
2022-09-21T06:25:34.574Z,102595.59
2022-09-21T06:28:06.472Z,102597.16
2022-09-21T06:30:35.129Z,102590.63
2022-09-21T06:33:04.307Z,102597.50
2022-09-21T06:35:35.495Z,102592.00
2022-09-21T06:38:05.060Z,102597.03
2022-09-21T06:40:34.132Z,102597.69
2022-09-21T06:43:03.973Z,102603.78
2022-09-21T06:45:32.347Z,102598.25
2022-09-21T06:48:00.717Z,102601.59
2022-09-21T06:50:28.903Z,102602.22
2022-09-21T06:53:00.835Z,102601.13
2022-09-21T06:55:28.849Z,102601.69
2022-09-21T06:58:01.836Z,102604.00
2022-09-21T07:00:30.575Z,102604.63
2022-09-21T07:02:58.821Z,102603.34
2022-09-21T07:05:27.387Z,102600.28
2022-09-21T07:08:00.413Z,102608.88
2022-09-21T07:10:28.675Z,102614.81
2022-09-21T07:12:56.558Z,102612.66
2022-09-21T07:15:29.141Z,102605.16
2022-09-21T07:18:05.300Z,102609.28
2022-09-21T07:20:33.965Z,102612.34
2022-09-21T07:23:11.418Z,102606.56
2022-09-21T07:25:39.912Z,102611.59
2022-09-21T07:28:07.731Z,102611.16
2022-09-21T07:30:37.788Z,102612.19
2022-09-21T07:33:05.769Z,102607.88
2022-09-21T07:35:33.873Z,102608.59
2022-09-21T07:38:04.812Z,102596.19
2022-09-21T07:40:32.894Z,102602.03
2022-09-21T07:43:02.295Z,102595.88
2022-09-21T07:45:31.056Z,102601.97
2022-09-21T07:48:04.084Z,102610.81
2022-09-21T07:50:33.743Z,102611.28
2022-09-21T07:53:03.549Z,102598.72
2022-09-21T07:55:31.886Z,102592.69
2022-09-21T07:58:17.402Z,102593.44
2022-09-21T08:00:45.341Z,102593.78
2022-09-21T08:03:13.204Z,102597.16
2022-09-21T08:05:41.068Z,102601.59
2022-09-21T08:08:10.416Z,102594.75
2022-09-21T08:10:39.545Z,102599.25
2022-09-21T08:13:07.573Z,102611.13
2022-09-21T08:15:49.434Z,102601.63
2022-09-21T08:18:18.127Z,102597.38
2022-09-21T08:20:46.122Z,102605.78
2022-09-21T08:23:17.162Z,102605.63
2022-09-21T08:25:45.241Z,102609.47
2022-09-21T08:28:14.149Z,102614.19
2022-09-21T08:30:42.182Z,102608.31
2022-09-21T08:33:10.155Z,102604.13
2022-09-21T08:35:38.153Z,102605.47
2022-09-21T08:38:06.401Z,102600.72
2022-09-21T08:40:35.954Z,102606.00
2022-09-21T08:43:06.877Z,102607.25
2022-09-21T08:45:39.096Z,102611.03
2022-09-21T08:48:14.471Z,102605.72
2022-09-21T08:50:46.686Z,102601.06
2022-09-21T08:53:17.725Z,102607.59
2022-09-21T08:55:47.232Z,102612.81
2022-09-21T08:58:24.056Z,102609.81
2022-09-21T09:01:07.038Z,102606.41
2022-09-21T09:04:02.710Z,102607.81
2022-09-21T09:06:42.115Z,102611.38
2022-09-21T09:09:44.060Z,102603.97
2022-09-21T09:12:34.147Z,102610.34
2022-09-21T09:15:28.212Z,102610.69
2022-09-21T09:18:02.476Z,102622.50
2022-09-21T09:20:32.935Z,102611.59
2022-09-21T09:23:11.050Z,102623.94
2022-09-21T09:25:42.282Z,102621.44
2022-09-21T09:28:29.548Z,102621.78
2022-09-21T09:31:02.648Z,102620.56
2022-09-21T09:33:42.691Z,102632.34
2022-09-21T09:36:13.795Z,102629.00
2022-09-21T09:38:46.472Z,102632.09
2022-09-21T09:41:40.450Z,102634.50
2022-09-21T09:44:21.271Z,102630.75
2022-09-21T09:47:01.278Z,102633.56
2022-09-21T09:49:37.026Z,102637.44
2022-09-21T09:52:05.911Z,102635.00
2022-09-21T09:54:36.633Z,102636.53
2022-09-21T09:57:05.733Z,102637.44
2022-09-21T09:59:39.872Z,102634.47
2022-09-21T10:02:09.513Z,102636.84
2022-09-21T10:04:37.510Z,102626.72
2022-09-21T10:07:05.468Z,102626.00
2022-09-21T10:09:35.647Z,102624.84
2022-09-21T10:12:16.753Z,102620.59
2022-09-21T10:14:52.587Z,102624.59
2022-09-21T10:17:21.363Z,102619.84
2022-09-21T10:19:49.382Z,102626.84
2022-09-21T10:22:19.165Z,102627.81
2022-09-21T10:24:51.317Z,102631.13
2022-09-21T10:27:23.604Z,102619.22
2022-09-21T10:29:52.846Z,102625.97
2022-09-21T10:32:26.498Z,102621.16
2022-09-21T10:35:19.217Z,102614.00
2022-09-21T10:37:49.390Z,102612.34
2022-09-21T10:40:26.140Z,102613.38
2022-09-21T10:42:56.554Z,102625.00
2022-09-21T10:45:27.888Z,102618.69
2022-09-21T10:47:58.239Z,102617.22
2022-09-21T10:50:29.710Z,102614.44
2022-09-21T10:53:02.226Z,102613.78
2022-09-21T10:55:32.223Z,102606.88
2022-09-21T10:58:01.075Z,102609.13
2022-09-21T11:00:42.149Z,102597.25
2022-09-21T11:03:48.536Z,102596.94
2022-09-21T11:06:24.157Z,102595.50
2022-09-21T11:09:00.042Z,102598.03
2022-09-21T11:11:47.365Z,102604.53
2022-09-21T11:14:38.333Z,102597.97
2022-09-21T11:17:13.367Z,102596.03
2022-09-21T11:19:46.298Z,102603.16
2022-09-21T11:22:21.130Z,102603.38
2022-09-21T11:24:53.736Z,102595.78
2022-09-21T11:27:25.579Z,102598.19
2022-09-21T11:30:03.036Z,102603.63
2022-09-21T11:32:48.907Z,102604.25
2022-09-21T11:35:31.016Z,102597.72
2022-09-21T11:38:10.871Z,102602.22
2022-09-21T11:41:09.649Z,102602.19
2022-09-21T11:43:58.549Z,102602.00
2022-09-21T11:46:34.536Z,102600.16
2022-09-21T11:49:20.626Z,102600.47
2022-09-21T11:52:04.052Z,102591.91
2022-09-21T11:54:47.724Z,102591.66
2022-09-21T11:57:22.408Z,102591.19
2022-09-21T12:00:07.722Z,102595.88
2022-09-21T12:02:52.314Z,102594.34
2022-09-21T12:05:31.349Z,102584.03
2022-09-21T12:08:16.813Z,102578.38
2022-09-21T12:10:53.977Z,102581.63
2022-09-21T12:13:32.300Z,102573.72
2022-09-21T12:16:12.063Z,102584.34
2022-09-21T12:18:55.850Z,102580.59
2022-09-21T12:21:30.674Z,102572.97
2022-09-21T12:24:02.124Z,102567.13
2022-09-21T12:26:37.547Z,102570.13
2022-09-21T12:29:13.573Z,102570.13
2022-09-21T12:31:48.399Z,102564.53
2022-09-21T12:34:19.502Z,102557.06
2022-09-21T12:37:00.823Z,102560.16
2022-09-21T12:39:35.055Z,102556.81
2022-09-21T12:42:06.510Z,102549.25
2022-09-21T12:44:52.359Z,102555.97
2022-09-21T12:47:24.650Z,102552.50
2022-09-21T12:49:54.592Z,102552.28
2022-09-21T12:52:28.126Z,102554.56
2022-09-21T12:55:03.943Z,102557.47
2022-09-21T12:57:58.586Z,102547.41
2022-09-21T13:00:36.301Z,102549.13
2022-09-21T13:03:12.736Z,102541.03
2022-09-21T13:05:47.824Z,102546.75
2022-09-21T13:08:21.602Z,102538.66
2022-09-21T13:10:59.377Z,102541.91
2022-09-21T13:13:31.119Z,102535.81
2022-09-21T13:16:00.613Z,102541.09
2022-09-21T13:18:36.398Z,102536.81
2022-09-21T13:21:18.114Z,102532.56
2022-09-21T13:23:54.045Z,102539.31
2022-09-21T13:26:32.663Z,102539.72
2022-09-21T13:29:27.571Z,102537.69
2022-09-21T13:31:58.874Z,102537.13
2022-09-21T13:34:32.391Z,102536.72
2022-09-21T13:37:27.794Z,102539.19
2022-09-21T13:40:41.359Z,102532.34
2022-09-21T13:43:24.024Z,102531.59
2022-09-21T13:45:56.025Z,102530.97
2022-09-21T13:48:29.845Z,102521.53
2022-09-21T13:51:01.553Z,102523.72
2022-09-21T13:53:35.749Z,102512.75
2022-09-21T13:56:17.762Z,102515.81
2022-09-21T13:58:52.164Z,102509.44
2022-09-21T14:04:21.177Z,102512.44
2022-09-21T14:06:53.493Z,102510.06
2022-09-21T14:09:26.975Z,102511.16
2022-09-21T14:11:59.155Z,102513.00
2022-09-21T14:14:33.123Z,102506.50
2022-09-21T14:17:02.652Z,102501.94
2022-09-21T14:20:04.279Z,102501.81
2022-09-21T14:22:40.552Z,102498.66
2022-09-21T14:25:26.560Z,102496.06
2022-09-21T14:27:59.479Z,102492.16
2022-09-21T14:30:33.212Z,102488.06
2022-09-21T14:33:19.657Z,102495.78
2022-09-21T14:35:48.834Z,102484.84
2022-09-21T14:38:22.015Z,102484.06
2022-09-21T14:40:51.621Z,102485.72
2022-09-21T14:43:25.256Z,102492.72
2022-09-21T14:46:11.866Z,102482.25
2022-09-21T14:48:50.386Z,102483.66
2022-09-21T14:51:24.114Z,102486.13
2022-09-21T14:54:26.264Z,102481.16
2022-09-21T14:57:18.803Z,102480.63
2022-09-21T15:00:02.113Z,102471.75
2022-09-21T15:02:35.784Z,102471.91
2022-09-21T15:05:24.418Z,102482.91
2022-09-21T15:08:31.507Z,102459.44
2022-09-21T15:11:09.913Z,102460.50
2022-09-21T15:14:02.275Z,102461.81
2022-09-21T15:16:41.147Z,102459.16
2022-09-21T15:19:23.187Z,102457.47
2022-09-21T15:21:53.341Z,102464.97
2022-09-21T15:24:25.954Z,102466.47
2022-09-21T15:27:02.222Z,102470.25
2022-09-21T15:29:32.639Z,102461.53
2022-09-21T15:32:01.499Z,102458.94
2022-09-21T15:34:32.160Z,102463.25
2022-09-21T15:37:18.109Z,102468.88
2022-09-21T15:39:46.274Z,102463.13
2022-09-21T15:42:23.091Z,102451.91
2022-09-21T15:44:55.396Z,102461.72
2022-09-21T15:47:29.717Z,102456.53
2022-09-21T15:49:59.164Z,102454.56
2022-09-21T15:52:32.645Z,102458.44
2022-09-21T15:55:03.093Z,102457.97
2022-09-21T15:57:39.215Z,102448.88
2022-09-21T16:00:20.353Z,102456.22
2022-09-21T16:03:06.055Z,102455.97
2022-09-21T16:05:45.233Z,102456.47
2022-09-21T16:08:30.020Z,102460.91
2022-09-21T16:11:14.078Z,102457.44
2022-09-21T16:13:59.907Z,102449.41
2022-09-21T16:16:28.068Z,102456.47
2022-09-21T16:18:59.614Z,102454.81
2022-09-21T16:21:33.017Z,102456.47
2022-09-21T16:24:12.515Z,102453.09
2022-09-21T16:26:41.978Z,102454.09
2022-09-21T16:29:23.600Z,102455.59
2022-09-21T16:31:51.904Z,102454.09
2022-09-21T16:34:22.911Z,102456.69
2022-09-21T16:36:54.963Z,102453.09
2022-09-21T16:39:23.513Z,102463.91
2022-09-21T16:41:56.152Z,102454.09
2022-09-21T16:44:26.142Z,102462.38
2022-09-21T16:46:59.789Z,102466.00
2022-09-21T16:49:32.721Z,102463.25
2022-09-21T16:52:02.319Z,102468.31
2022-09-21T16:54:30.513Z,102463.03
2022-09-21T16:57:00.263Z,102459.50
2022-09-21T16:59:28.914Z,102460.63
2022-09-21T17:01:58.453Z,102469.66
2022-09-21T17:04:28.896Z,102468.13
2022-09-21T17:06:57.790Z,102462.38
2022-09-21T17:09:30.106Z,102462.00
2022-09-21T17:11:59.389Z,102463.38
2022-09-21T17:14:27.270Z,102476.41
2022-09-21T17:16:58.171Z,102469.63
2022-09-21T17:19:26.791Z,102477.47
2022-09-21T17:21:54.598Z,102472.63
2022-09-21T17:24:45.872Z,102472.25
2022-09-21T17:27:12.816Z,102473.00
2022-09-21T17:29:47.537Z,102481.75
2022-09-21T17:32:16.569Z,102478.81
2022-09-21T17:34:45.248Z,102482.19
2022-09-21T17:37:13.399Z,102479.94
2022-09-21T17:39:42.571Z,102470.56
2022-09-21T17:42:17.947Z,102473.13
2022-09-21T17:44:59.628Z,102472.66
2022-09-21T17:47:29.873Z,102468.75
2022-09-21T17:50:03.092Z,102468.06
2022-09-21T17:52:49.156Z,102477.38
2022-09-21T17:55:17.930Z,102471.59
2022-09-21T17:57:59.310Z,102476.25
2022-09-21T18:00:35.625Z,102483.13
2022-09-21T18:03:04.830Z,102478.69
2022-09-21T18:05:32.986Z,102484.06
2022-09-21T18:08:01.201Z,102484.00
2022-09-21T18:10:30.630Z,102481.38
2022-09-21T18:13:20.481Z,102480.16
2022-09-21T18:16:03.124Z,102478.69
2022-09-21T18:18:45.272Z,102481.47
2022-09-21T18:21:19.393Z,102477.06
2022-09-21T18:24:07.822Z,102482.56
2022-09-21T18:26:36.161Z,102493.59
2022-09-21T18:29:28.534Z,102488.31
2022-09-21T18:32:08.429Z,102486.56
2022-09-21T18:34:56.797Z,102491.34
2022-09-21T18:37:34.946Z,102488.06
2022-09-21T18:40:13.665Z,102497.56
2022-09-21T18:42:49.999Z,102493.25
2022-09-21T18:45:24.040Z,102487.34
2022-09-21T18:48:06.557Z,102488.53
2022-09-21T18:50:38.841Z,102488.88
2022-09-21T18:53:12.492Z,102488.34
2022-09-21T18:55:41.288Z,102499.44
2022-09-21T18:58:11.221Z,102495.25
2022-09-21T19:00:41.495Z,102488.38
2022-09-21T19:03:19.044Z,102487.88
2022-09-21T19:06:00.722Z,102484.78
2022-09-21T19:08:38.601Z,102490.50
2022-09-21T19:11:14.457Z,102491.75
2022-09-21T19:13:52.632Z,102496.47
2022-09-21T19:16:30.858Z,102492.34
2022-09-21T19:19:11.464Z,102498.69
2022-09-21T19:21:47.029Z,102479.56
2022-09-21T19:24:21.969Z,102494.72
2022-09-21T19:27:06.193Z,102501.72
2022-09-21T19:29:43.051Z,102499.16
2022-09-21T19:32:23.122Z,102503.81
2022-09-21T19:34:52.787Z,102496.84
2022-09-21T19:37:20.755Z,102492.59
2022-09-21T19:39:49.049Z,102498.13
2022-09-21T19:42:29.857Z,102509.16
2022-09-21T19:45:13.793Z,102503.06
2022-09-21T19:47:52.359Z,102505.84
2022-09-21T19:50:23.033Z,102496.34
2022-09-21T19:52:52.473Z,102508.03
2022-09-21T19:55:40.280Z,102508.91
2022-09-21T19:58:26.184Z,102506.22
2022-09-21T20:00:56.084Z,102505.22
2022-09-21T20:03:31.718Z,102506.09
2022-09-21T20:06:05.805Z,102503.63
2022-09-21T20:08:41.595Z,102508.03
2022-09-21T20:11:14.267Z,102514.28
2022-09-21T20:13:59.848Z,102508.78
2022-09-21T20:16:36.879Z,102507.97
2022-09-21T20:19:18.211Z,102511.66
2022-09-21T20:21:50.207Z,102516.31
2022-09-21T20:24:22.994Z,102511.13
2022-09-21T20:26:52.043Z,102521.50
2022-09-21T20:29:20.732Z,102513.56
2022-09-21T20:31:52.248Z,102527.78
2022-09-21T20:34:21.552Z,102520.53
2022-09-21T20:36:49.488Z,102507.34
2022-09-21T20:39:17.485Z,102514.66
2022-09-21T20:41:45.472Z,102517.13
2022-09-21T20:44:14.639Z,102514.47
2022-09-21T20:46:42.609Z,102521.19
2022-09-21T20:49:15.266Z,102516.94
2022-09-21T20:51:45.567Z,102518.66
2022-09-21T20:54:13.395Z,102517.72
2022-09-21T20:56:41.512Z,102516.72
2022-09-21T20:59:09.505Z,102509.66
2022-09-21T21:01:37.611Z,102519.47
2022-09-21T21:04:05.501Z,102516.94
2022-09-21T21:06:34.217Z,102515.91
2022-09-21T21:09:03.452Z,102514.81
2022-09-21T21:11:31.357Z,102511.94
2022-09-21T21:13:59.524Z,102517.31
2022-09-21T21:16:27.406Z,102516.25
2022-09-21T21:18:55.777Z,102517.13
2022-09-21T21:21:25.396Z,102520.69
2022-09-21T21:24:11.623Z,102516.34
2022-09-21T21:29:28.874Z,102523.94
2022-09-21T21:31:56.899Z,102521.50
2022-09-21T21:34:24.783Z,102524.47
2022-09-21T21:36:52.807Z,102526.53
2022-09-21T21:39:20.873Z,102522.28
2022-09-21T21:41:50.081Z,102526.84
2022-09-21T21:44:17.987Z,102515.31
2022-09-21T21:46:45.843Z,102529.59
2022-09-21T21:49:14.083Z,102522.81
2022-09-21T21:51:41.974Z,102517.47
2022-09-21T21:54:09.839Z,102522.19
2022-09-21T21:56:37.616Z,102516.97
2022-09-21T21:59:06.888Z,102517.31
2022-09-21T22:01:34.901Z,102520.25
2022-09-21T22:04:03.923Z,102514.09
2022-09-21T22:06:34.143Z,102521.41
2022-09-21T22:09:03.178Z,102512.41
2022-09-21T22:11:32.051Z,102504.69
2022-09-21T22:14:01.820Z,102511.91
2022-09-21T22:16:33.941Z,102512.03
2022-09-21T22:19:04.078Z,102512.53
2022-09-21T22:21:34.022Z,102507.25
2022-09-21T22:24:03.601Z,102503.75
2022-09-21T22:26:34.165Z,102512.88
2022-09-21T22:29:04.820Z,102508.38
2022-09-21T22:31:36.521Z,102517.63
2022-09-21T22:34:05.377Z,102514.41
2022-09-21T22:36:35.561Z,102514.59
2022-09-21T22:39:04.580Z,102510.25
2022-09-21T22:41:35.305Z,102513.13
2022-09-21T22:44:03.665Z,102511.47
2022-09-21T22:46:33.910Z,102505.41
2022-09-21T22:49:01.796Z,102512.72
2022-09-21T22:51:30.925Z,102508.31
2022-09-21T22:53:59.289Z,102507.50
2022-09-21T22:56:29.174Z,102512.22
2022-09-21T22:58:58.701Z,102506.88
2022-09-21T23:01:29.114Z,102505.06
2022-09-21T23:03:59.941Z,102504.28
2022-09-21T23:06:29.886Z,102506.41
2022-09-21T23:08:59.429Z,102505.25
2022-09-21T23:11:29.084Z,102509.06
2022-09-21T23:13:57.945Z,102508.25
2022-09-21T23:16:27.384Z,102504.75
2022-09-21T23:18:56.138Z,102497.41
2022-09-21T23:21:27.910Z,102503.81
2022-09-21T23:23:57.062Z,102504.53
2022-09-21T23:26:26.170Z,102500.16
2022-09-21T23:28:55.730Z,102499.41
2022-09-21T23:31:24.493Z,102492.50
2022-09-21T23:33:54.737Z,102498.91
2022-09-21T23:36:24.974Z,102496.25
2022-09-21T23:38:54.473Z,102493.63
2022-09-21T23:41:24.085Z,102490.00
2022-09-21T23:43:52.495Z,102483.75
2022-09-21T23:46:22.433Z,102483.69
2022-09-21T23:48:50.686Z,102487.28
2022-09-21T23:51:19.512Z,102481.19
2022-09-21T23:53:47.987Z,102477.53
2022-09-21T23:56:20.476Z,102480.03
2022-09-21T23:58:49.336Z,102482.69
